Time;durP1;ratioP1;P1;durP2;ratioP2;P2;SDS_P1;SDS_P2;PMS_P1;PMS_P2;Temp;Humidity;BMP_temperature;BMP_pressure;BME280_temperature;BME280_humidity;BME280_pressure;Samples;Min_cycle;Max_cycle;Signal;HPM_P1;HPM_P2
2023/11/21 00:01:59;;;;;;;9.80;5.30;;;;;;;8.20;100.00;100948.09;4872787;29;20066;-71
2023/11/21 00:04:25;;;;;;;14.38;6.30;;;;;;;8.18;100.00;100944.84;4904344;29;20489;-70
2023/11/21 00:06:51;;;;;;;10.60;5.88;;;;;;;8.12;100.00;100953.81;4882221;29;20785;-70
2023/11/21 00:09:17;;;;;;;11.63;6.70;;;;;;;8.10;100.00;100950.59;4911129;29;20160;-69
2023/11/21 00:11:44;;;;;;;9.27;5.30;;;;;;;8.04;100.00;100949.72;4880220;29;20454;-71
2023/11/21 00:14:11;;;;;;;11.35;6.32;;;;;;;7.98;100.00;100950.72;4879859;29;20402;-71
2023/11/21 00:16:37;;;;;;;10.77;6.07;;;;;;;7.97;100.00;100964.31;4899556;29;20552;-71
2023/11/21 00:19:02;;;;;;;10.45;5.82;;;;;;;7.96;100.00;100957.34;4897927;29;20046;-70
2023/11/21 00:21:28;;;;;;;9.77;6.88;;;;;;;7.89;100.00;100971.69;4897255;29;20119;-71
2023/11/21 00:23:54;;;;;;;10.93;6.05;;;;;;;7.85;100.00;100965.22;4887820;29;20050;-70
2023/11/21 00:26:20;;;;;;;9.82;5.80;;;;;;;7.83;100.00;100974.50;4889426;29;20032;-71
2023/11/21 00:28:56;;;;;;;11.77;6.47;;;;;;;7.73;100.00;100975.19;4903216;29;20865;-71
2023/11/21 00:31:21;;;;;;;12.15;7.15;;;;;;;7.68;100.00;100972.44;4885475;29;20043;-69
2023/11/21 00:33:47;;;;;;;13.27;7.47;;;;;;;7.60;100.00;100978.19;4908918;29;20746;-71
2023/11/21 00:36:12;;;;;;;12.75;7.50;;;;;;;7.52;100.00;100974.09;4923051;29;20058;-70
2023/11/21 00:38:39;;;;;;;15.48;8.07;;;;;;;7.51;100.00;100975.09;4890102;29;20035;-70
2023/11/21 00:41:06;;;;;;;14.82;7.93;;;;;;;7.49;100.00;100981.75;4923710;29;20046;-70
2023/11/21 00:43:33;;;;;;;16.23;8.82;;;;;;;7.43;100.00;100986.19;4912754;29;20128;-70
2023/11/21 00:46:04;;;;;;;16.20;8.85;;;;;;;7.46;100.00;100999.03;4912637;29;20042;-71
2023/11/21 00:48:30;;;;;;;15.65;8.65;;;;;;;7.37;100.00;101001.28;4885342;29;20186;-70
2023/11/21 00:50:56;;;;;;;15.40;8.38;;;;;;;7.33;100.00;100997.50;4901647;29;20546;-70
2023/11/21 00:53:21;;;;;;;15.75;7.70;;;;;;;7.32;100.00;100993.22;4919136;29;20050;-71
2023/11/21 00:55:47;;;;;;;17.25;8.35;;;;;;;7.30;100.00;101008.63;4922531;29;20040;-71
2023/11/21 00:58:13;;;;;;;15.30;8.32;;;;;;;7.29;100.00;101012.34;4889155;29;20039;-71
2023/11/21 01:00:41;;;;;;;15.95;8.55;;;;;;;7.28;100.00;101026.72;4922343;29;20035;-71
2023/11/21 01:03:07;;;;;;;14.23;7.95;;;;;;;7.23;100.00;101021.28;4893659;29;21237;-71
2023/11/21 01:05:34;;;;;;;15.95;8.32;;;;;;;7.23;100.00;101031.94;4923028;29;20027;-71
2023/11/21 01:08:00;;;;;;;15.75;9.18;;;;;;;7.20;100.00;101034.28;4901195;29;20035;-71
2023/11/21 01:10:26;;;;;;;15.68;9.80;;;;;;;7.10;100.00;101032.25;4908524;29;20857;-70
2023/11/21 01:12:51;;;;;;;15.95;8.70;;;;;;;7.06;100.00;101050.56;4898164;29;20036;-70
2023/11/21 01:15:17;;;;;;;16.23;10.05;;;;;;;7.03;100.00;101050.22;4885073;29;20048;-70
2023/11/21 01:17:43;;;;;;;15.40;9.13;;;;;;;6.98;100.00;101058.13;4889058;29;20068;-70
2023/11/21 01:20:12;;;;;;;16.60;10.25;;;;;;;6.96;100.00;101065.53;4890786;29;20043;-69
2023/11/21 01:22:39;;;;;;;18.23;9.77;;;;;;;6.94;100.00;101067.63;4886423;29;20130;-70
2023/11/21 01:25:07;;;;;;;17.83;9.52;;;;;;;6.91;100.00;101073.41;4882439;29;20112;-70
2023/11/21 01:27:34;;;;;;;14.23;8.60;;;;;;;6.81;100.00;101076.69;4911068;29;20420;-70
2023/11/21 01:30:00;;;;;;;20.33;9.13;;;;;;;6.86;100.00;101076.81;4907981;29;20043;-71
2023/11/21 01:32:25;;;;;;;17.10;9.70;;;;;;;6.76;100.00;101072.06;4904120;29;20039;-71
2023/11/21 01:34:51;;;;;;;16.10;9.07;;;;;;;6.76;100.00;101082.72;4906110;29;20394;-69
2023/11/21 01:37:17;;;;;;;17.85;10.20;;;;;;;6.74;100.00;101079.50;4891812;29;20046;-69
2023/11/21 01:39:44;;;;;;;17.42;9.27;;;;;;;6.73;100.00;101087.72;4889823;29;20044;-71
2023/11/21 01:42:09;;;;;;;18.45;8.55;;;;;;;6.70;100.00;101086.31;4901412;29;20399;-71
2023/11/21 01:44:35;;;;;;;12.90;8.20;;;;;;;6.66;100.00;101093.19;4889269;29;20028;-69
2023/11/21 01:47:05;;;;;;;12.45;7.75;;;;;;;6.60;100.00;101091.44;4911280;29;20043;-70
2023/11/21 01:49:33;;;;;;;13.38;8.02;;;;;;;6.60;100.00;101088.78;4892344;29;20269;-72
2023/11/21 01:51:59;;;;;;;10.30;6.47;;;;;;;6.58;100.00;101088.22;4919734;29;20052;-71
2023/11/21 01:54:26;;;;;;;10.68;6.85;;;;;;;6.56;100.00;101084.97;4924353;23;21253;-75
2023/11/21 01:56:52;;;;;;;10.25;6.38;;;;;;;6.53;100.00;101080.13;4893542;29;20036;-74
2023/11/21 01:59:22;;;;;;;11.18;7.10;;;;;;;6.50;100.00;101083.25;4876983;29;20087;-76
2023/11/21 02:01:50;;;;;;;9.30;6.35;;;;;;;6.49;100.00;101093.06;4891313;29;20059;-73
2023/11/21 02:04:15;;;;;;;9.95;6.05;;;;;;;6.48;100.00;101095.97;4895321;29;20142;-74
2023/11/21 02:06:43;;;;;;;9.50;6.45;;;;;;;6.45;100.00;101099.13;4897673;29;20143;-74
2023/11/21 02:09:08;;;;;;;10.23;6.25;;;;;;;6.42;100.00;101103.03;4925312;29;20027;-75
2023/11/21 02:11:34;;;;;;;9.65;5.50;;;;;;;6.41;100.00;101100.63;4895183;29;20897;-74
2023/11/21 02:14:01;;;;;;;9.95;6.18;;;;;;;6.37;100.00;101096.78;4898871;28;20739;-75
2023/11/21 02:16:27;;;;;;;9.35;5.82;;;;;;;6.38;100.00;101111.72;4925008;29;20044;-74
2023/11/21 02:18:52;;;;;;;10.38;5.88;;;;;;;6.36;100.00;101119.13;4909250;29;20180;-74
2023/11/21 02:21:19;;;;;;;8.18;6.00;;;;;;;6.33;100.00;101124.91;4875366;29;20176;-75
2023/11/21 02:23:46;;;;;;;8.25;5.13;;;;;;;6.31;100.00;101127.00;4895198;29;20545;-75
2023/11/21 02:26:13;;;;;;;7.30;5.07;;;;;;;6.25;100.00;101134.84;4876399;29;20511;-75
2023/11/21 02:28:40;;;;;;;9.40;5.15;;;;;;;6.26;100.00;101139.13;4909244;29;20073;-74
2023/11/21 02:31:07;;;;;;;7.60;4.88;;;;;;;6.24;100.00;101137.75;4923930;29;20118;-74
2023/11/21 02:33:34;;;;;;;8.27;5.20;;;;;;;6.23;100.00;101142.28;4912752;29;20576;-74
2023/11/21 02:36:02;;;;;;;7.72;5.05;;;;;;;6.24;100.00;101148.41;4913321;29;20039;-73
2023/11/21 02:38:28;;;;;;;7.60;5.15;;;;;;;6.22;100.00;101145.13;4907367;29;20031;-76
2023/11/21 02:40:55;;;;;;;7.95;5.47;;;;;;;6.20;100.00;101158.66;4890340;29;20039;-75
2023/11/21 02:43:21;;;;;;;8.98;5.70;;;;;;;6.20;100.00;101155.22;4918241;29;20119;-73
2023/11/21 02:45:46;;;;;;;8.18;5.22;;;;;;;6.20;100.00;101161.34;4900676;29;20122;-75
2023/11/21 02:48:12;;;;;;;8.98;5.63;;;;;;;6.18;100.00;101166.09;4893903;29;20517;-74
2023/11/21 02:50:38;;;;;;;9.30;5.50;;;;;;;6.14;100.00;101169.41;4894016;29;20070;-75
2023/11/21 02:53:05;;;;;;;8.10;4.90;;;;;;;6.15;100.00;101171.03;4907108;29;20035;-76
2023/11/21 02:55:34;;;;;;;9.13;5.20;;;;;;;6.11;100.00;101172.56;4890764;29;20103;-76
2023/11/21 02:58:01;;;;;;;9.00;5.22;;;;;;;6.10;100.00;101174.41;4892917;29;20032;-75
2023/11/21 03:00:27;;;;;;;;;;;;;;;6.14;100.00;101180.88;4908015;29;20044;-77
2023/11/21 03:02:55;;;;;;;6.72;4.80;;;;;;;6.15;100.00;101187.00;4884509;29;19925;-74
2023/11/21 03:05:21;;;;;;;7.97;5.07;;;;;;;6.10;100.00;101184.22;4873854;29;20096;-76
2023/11/21 03:07:47;;;;;;;8.60;5.75;;;;;;;6.13;100.00;101186.41;4876038;29;20052;-76
2023/11/21 03:10:13;;;;;;;8.48;5.35;;;;;;;6.12;100.00;101182.94;4891381;29;20090;-74
2023/11/21 03:12:39;;;;;;;8.88;5.00;;;;;;;6.10;100.00;101185.03;4889608;29;20043;-74
2023/11/21 03:15:06;;;;;;;10.43;6.05;;;;;;;6.05;100.00;101182.25;4901686;29;20042;-74
2023/11/21 03:17:35;;;;;;;9.02;5.10;;;;;;;6.02;100.00;101193.31;4922472;29;20039;-74
2023/11/21 03:20:04;;;;;;;8.45;5.32;;;;;;;6.01;100.00;101183.72;4881287;29;20130;-76
2023/11/21 03:22:29;;;;;;;8.27;5.68;;;;;;;6.04;100.00;101196.59;4925774;29;20124;-75
2023/11/21 03:24:55;;;;;;;7.80;4.70;;;;;;;5.99;100.00;101199.09;4881711;29;20127;-74
2023/11/21 03:27:21;;;;;;;8.85;6.13;;;;;;;5.99;100.00;101199.09;4893048;29;20066;-77
2023/11/21 03:29:47;;;;;;;9.02;5.70;;;;;;;5.96;100.00;101210.19;4893218;29;20083;-75
2023/11/21 03:32:13;;;;;;;8.00;5.20;;;;;;;5.95;100.00;101209.38;4932301;29;20347;-74
2023/11/21 03:34:58;;;;;;;7.50;5.10;;;;;;;5.97;100.00;101209.97;4893293;29;20043;-75
2023/11/21 03:37:27;;;;;;;9.38;6.30;;;;;;;5.97;100.00;101219.81;4894116;29;20036;-74
2023/11/21 03:39:55;;;;;;;11.18;6.28;;;;;;;5.99;100.00;101223.84;4909783;29;20078;-74
2023/11/21 03:42:20;;;;;;;8.20;5.50;;;;;;;5.96;100.00;101228.78;4881107;29;20390;-76
2023/11/21 03:44:47;;;;;;;10.77;5.90;;;;;;;5.95;100.00;101237.81;4876075;29;20040;-74
2023/11/21 03:47:13;;;;;;;8.18;5.22;;;;;;;5.95;100.00;101229.84;4908975;29;20032;-75
2023/11/21 03:49:39;;;;;;;;;;;;;;;5.93;100.00;101245.22;4910755;29;20035;-76
2023/11/21 03:52:05;;;;;;;9.10;5.38;;;;;;;5.92;100.00;101235.63;4895045;29;19929;-74
2023/11/21 03:54:32;;;;;;;8.50;5.82;;;;;;;5.90;100.00;101248.31;4904301;29;20099;-76
2023/11/21 03:56:59;;;;;;;11.40;6.45;;;;;;;5.87;100.00;101238.91;4907182;29;20060;-74
2023/11/21 03:59:25;;;;;;;9.10;5.28;;;;;;;5.86;100.00;101249.78;4875662;29;20334;-77
2023/11/21 04:01:51;;;;;;;8.55;5.03;;;;;;;5.83;100.00;101255.56;4901512;29;20094;-74
2023/11/21 04:04:16;;;;;;;9.88;5.80;;;;;;;5.81;100.00;101260.25;4883763;29;20039;-76
2023/11/21 04:06:42;;;;;;;10.38;5.68;;;;;;;5.78;100.00;101263.38;4906272;29;20031;-75
2023/11/21 04:09:08;;;;;;;10.20;6.03;;;;;;;5.77;100.00;101267.09;4912883;29;20031;-76
2023/11/21 04:11:33;;;;;;;9.02;5.50;;;;;;;5.73;100.00;101272.84;4899220;29;20043;-75
2023/11/21 04:13:59;;;;;;;9.07;5.35;;;;;;;5.74;100.00;101266.47;4894512;29;20066;-76
2023/11/21 04:16:25;;;;;;;10.27;6.20;;;;;;;5.72;100.00;101281.84;4888335;29;20501;-75
2023/11/21 04:18:50;;;;;;;8.77;6.20;;;;;;;5.72;100.00;101284.50;4914845;29;20035;-74
2023/11/21 04:21:16;;;;;;;13.32;6.53;;;;;;;5.73;100.00;101280.81;4897550;29;20094;-74
2023/11/21 04:23:42;;;;;;;8.32;5.80;;;;;;;5.72;100.00;101289.81;4916355;29;20040;-76
2023/11/21 04:26:07;;;;;;;9.57;5.95;;;;;;;5.72;100.00;101299.63;4899687;29;20039;-76
2023/11/21 04:28:34;;;;;;;14.13;6.90;;;;;;;5.73;100.00;101309.22;4929539;29;20039;-75
2023/11/21 04:31:00;;;;;;;9.20;5.63;;;;;;;5.71;100.00;101309.47;4899611;29;20042;-74
2023/11/21 04:33:25;;;;;;;8.93;6.55;;;;;;;5.72;100.00;101310.28;4900705;29;20064;-74
2023/11/21 04:35:51;;;;;;;10.13;6.30;;;;;;;5.69;100.00;101308.88;4935945;28;20043;-76
2023/11/21 04:38:18;;;;;;;10.55;6.10;;;;;;;5.70;100.00;101313.16;4922633;29;20039;-75
2023/11/21 04:40:44;;;;;;;10.85;6.70;;;;;;;5.71;100.00;101314.78;4911769;29;20568;-75
2023/11/21 04:43:10;;;;;;;9.90;6.53;;;;;;;5.72;100.00;101316.41;4929959;29;20036;-76
2023/11/21 04:45:36;;;;;;;11.23;6.60;;;;;;;5.72;100.00;101319.06;4872153;29;20317;-75
2023/11/21 04:48:02;;;;;;;9.10;6.22;;;;;;;5.74;100.00;101318.81;4911541;29;20039;-74
2023/11/21 04:50:28;;;;;;;11.05;7.13;;;;;;;5.73;100.00;101328.66;4912526;29;20067;-74
2023/11/21 04:52:54;;;;;;;10.30;6.32;;;;;;;5.74;100.00;101324.94;4894620;29;20110;-75
2023/11/21 04:55:19;;;;;;;9.43;6.35;;;;;;;5.75;100.00;101326.56;4895366;29;20529;-75
2023/11/21 04:57:46;;;;;;;10.77;6.18;;;;;;;5.78;100.00;101337.81;4899824;29;20036;-74
2023/11/21 05:00:12;;;;;;;15.32;7.25;;;;;;;5.78;100.00;101329.84;4900175;29;20039;-75
2023/11/21 05:02:41;;;;;;;9.10;5.57;;;;;;;5.80;100.00;101335.72;4902030;29;20044;-75
2023/11/21 05:05:07;;;;;;;8.68;5.68;;;;;;;5.80;100.00;101338.38;4894721;29;20032;-74
2023/11/21 05:07:35;;;;;;;10.82;6.95;;;;;;;5.80;100.00;101338.38;4910879;29;20093;-75
2023/11/21 05:10:04;;;;;;;9.43;6.60;;;;;;;5.75;100.00;101342.50;4898634;29;20047;-78
2023/11/21 05:12:35;;;;;;;12.73;6.63;;;;;;;5.78;100.00;101345.78;4893451;29;20442;-75
2023/11/21 05:15:01;;;;;;;10.82;6.28;;;;;;;5.78;100.00;101346.59;4928632;29;20032;-76
2023/11/21 05:17:26;;;;;;;9.80;6.80;;;;;;;5.79;100.00;101360.69;4925083;29;20058;-74
2023/11/21 05:19:52;;;;;;;10.43;6.03;;;;;;;5.75;100.00;101353.16;4911096;29;20067;-74
2023/11/21 05:22:17;;;;;;;10.82;6.18;;;;;;;5.75;100.00;101355.00;4911871;29;20063;-76
2023/11/21 05:24:43;;;;;;;10.10;6.32;;;;;;;5.70;100.00;101358.34;4878372;29;20036;-74
2023/11/21 05:27:09;;;;;;;9.57;7.22;;;;;;;5.74;100.00;101359.50;4910317;29;20127;-75
2023/11/21 05:29:35;;;;;;;9.57;6.93;;;;;;;5.75;100.00;101365.63;4908487;29;20039;-77
2023/11/21 05:32:00;;;;;;;10.90;6.47;;;;;;;5.73;100.00;101371.16;4905651;29;20032;-74
2023/11/21 05:34:26;;;;;;;10.90;6.55;;;;;;;5.75;100.00;101371.75;4894902;29;20428;-74
2023/11/21 05:36:52;;;;;;;10.90;6.00;;;;;;;5.76;100.00;101377.91;4908411;29;20032;-74
2023/11/21 05:39:18;;;;;;;10.57;7.38;;;;;;;5.74;100.00;101380.75;4912188;29;20035;-75
2023/11/21 05:41:44;;;;;;;10.05;6.68;;;;;;;5.74;100.00;101386.06;4896680;29;20071;-74
2023/11/21 05:44:09;;;;;;;9.18;6.47;;;;;;;5.75;100.00;101387.69;4891588;29;20060;-75
2023/11/21 05:46:35;;;;;;;14.60;6.55;;;;;;;5.73;100.00;101400.41;4909081;29;20108;-75
2023/11/21 05:49:00;;;;;;;9.73;6.35;;;;;;;5.71;100.00;101399.81;4882369;29;20047;-74
2023/11/21 05:51:27;;;;;;;10.18;6.68;;;;;;;5.72;100.00;101403.28;4885127;29;20102;-75
2023/11/21 05:53:53;;;;;;;10.27;6.43;;;;;;;5.72;100.00;101400.63;4909528;29;20429;-76
2023/11/21 05:56:19;;;;;;;10.50;6.70;;;;;;;5.72;100.00;101398.78;4882131;29;20040;-74
2023/11/21 05:58:44;;;;;;;10.27;6.63;;;;;;;5.70;100.00;101398.19;4912278;29;20027;-76
2023/11/21 06:01:12;;;;;;;11.48;6.47;;;;;;;5.68;100.00;101410.88;4914972;29;20499;-76
2023/11/21 06:03:38;;;;;;;12.30;6.45;;;;;;;5.66;100.00;101428.91;4894185;29;20036;-74
2023/11/21 06:06:06;;;;;;;11.35;6.70;;;;;;;5.69;100.00;101425.81;4905647;29;20036;-75
2023/11/21 06:08:32;;;;;;;11.68;7.15;;;;;;;5.66;100.00;101422.78;4896017;29;20031;-75
2023/11/21 06:10:58;;;;;;;9.75;6.93;;;;;;;5.67;100.00;101425.19;4888822;29;20517;-75
2023/11/21 06:13:26;;;;;;;10.73;6.68;;;;;;;5.67;100.00;101430.50;4896577;29;20218;-75
2023/11/21 06:15:52;;;;;;;10.18;5.93;;;;;;;5.66;100.00;101444.03;4896843;29;20127;-74
2023/11/21 06:18:19;;;;;;;13.35;7.45;;;;;;;5.66;100.00;101450.16;4916330;29;20039;-73
2023/11/21 06:20:46;;;;;;;10.93;6.80;;;;;;;5.66;100.00;101455.47;4910028;29;20042;-74
2023/11/21 06:23:12;;;;;;;9.20;6.53;;;;;;;5.65;100.00;101451.19;4912763;29;20040;-73
2023/11/21 06:25:37;;;;;;;10.27;6.72;;;;;;;5.67;100.00;101462.41;4899162;29;20246;-74
2023/11/21 06:28:03;;;;;;;11.40;6.43;;;;;;;5.65;100.00;101468.97;4899368;29;20047;-74
2023/11/21 06:30:29;;;;;;;10.70;7.18;;;;;;;5.61;100.00;101473.09;4913687;29;20343;-74
2023/11/21 06:32:56;;;;;;;13.45;7.18;;;;;;;5.62;100.00;101478.22;4898049;29;20308;-77
2023/11/21 06:35:22;;;;;;;10.65;7.63;;;;;;;5.65;100.00;101474.28;4916384;29;20063;-75
2023/11/21 06:37:48;;;;;;;11.38;7.13;;;;;;;5.66;100.00;101487.34;4916772;29;20521;-78
2023/11/21 06:40:20;;;;;;;8.80;6.13;;;;;;;5.67;100.00;101488.16;4931252;29;20040;-75
2023/11/21 06:42:47;;;;;;;11.40;7.15;;;;;;;5.65;100.00;101491.06;4932635;29;20043;-74
2023/11/21 06:45:13;;;;;;;10.93;6.60;;;;;;;5.64;100.00;101493.94;4913603;29;20046;-77
2023/11/21 06:47:39;;;;;;;9.25;6.20;;;;;;;5.64;100.00;101500.06;4914329;29;20035;-75
2023/11/21 06:50:06;;;;;;;11.85;6.80;;;;;;;5.65;100.00;101508.84;4916208;29;20098;-75
2023/11/21 06:52:32;;;;;;;10.35;7.18;;;;;;;5.63;100.00;101503.75;4885067;29;20039;-74
2023/11/21 06:54:58;;;;;;;9.13;5.97;;;;;;;5.64;100.00;101494.75;4915442;29;20114;-74
2023/11/21 06:57:24;;;;;;;11.27;6.75;;;;;;;5.64;100.00;101494.75;4925825;29;20119;-75
2023/11/21 06:59:50;;;;;;;11.35;7.20;;;;;;;5.65;100.00;101507.00;4917208;29;20035;-74
2023/11/21 07:02:18;;;;;;;10.07;6.53;;;;;;;5.66;100.00;101505.16;4915458;29;20048;-75
2023/11/21 07:04:46;;;;;;;11.32;7.13;;;;;;;5.65;100.00;101514.97;4912768;29;20143;-75
2023/11/21 07:07:12;;;;;;;10.30;6.55;;;;;;;5.64;100.00;101510.69;4901274;29;20042;-74
2023/11/21 07:09:37;;;;;;;11.45;7.10;;;;;;;5.67;100.00;101518.22;4899327;29;20407;-73
2023/11/21 07:12:07;;;;;;;11.60;7.28;;;;;;;5.64;100.00;101526.63;4920145;29;20078;-74
2023/11/21 07:14:36;;;;;;;12.02;7.55;;;;;;;5.66;100.00;101524.56;4901499;29;20548;-73
2023/11/21 07:17:03;;;;;;;10.15;7.40;;;;;;;5.65;100.00;101533.56;4912192;29;20062;-73
2023/11/21 07:19:29;;;;;;;13.38;7.22;;;;;;;5.65;100.00;101541.53;4886958;29;20650;-73
2023/11/21 07:21:55;;;;;;;11.02;7.70;;;;;;;5.64;100.00;101547.91;4898594;29;20040;-75
2023/11/21 07:24:22;;;;;;;11.60;7.63;;;;;;;5.65;100.00;101560.16;4914427;29;20122;-74
2023/11/21 07:26:48;;;;;;;11.85;7.75;;;;;;;5.63;100.00;101558.75;4902049;29;20876;-75
2023/11/21 07:29:14;;;;;;;11.88;7.13;;;;;;;5.63;100.00;101564.88;4902643;29;20036;-74
2023/11/21 07:31:41;;;;;;;12.75;7.78;;;;;;;5.64;100.00;101574.47;4908656;29;20046;-74
2023/11/21 07:34:08;;;;;;;12.05;7.43;;;;;;;5.63;100.00;101572.03;4913146;29;20047;-76
2023/11/21 07:36:34;;;;;;;11.60;7.28;;;;;;;5.62;100.00;101576.53;4933384;28;20523;-75
2023/11/21 07:39:02;;;;;;;10.60;7.03;;;;;;;5.64;100.00;101577.13;4896507;29;20044;-75
2023/11/21 07:41:29;;;;;;;15.02;7.45;;;;;;;5.64;100.00;101586.94;4903423;29;20050;-75
2023/11/21 07:43:55;;;;;;;10.07;6.57;;;;;;;5.67;100.00;101586.50;4902631;29;20043;-75
2023/11/21 07:46:22;;;;;;;9.43;6.32;;;;;;;5.67;100.00;101589.97;4887039;29;20042;-74
2023/11/21 07:48:47;;;;;;;;;;;;;;;5.68;100.00;101599.56;4911835;29;20329;-74
2023/11/21 07:51:13;;;;;;;10.20;6.70;;;;;;;5.66;100.00;101604.28;4900531;29;20357;-75
2023/11/21 07:53:39;;;;;;;12.43;7.25;;;;;;;5.69;100.00;101609.19;4894591;29;20067;-75
2023/11/21 07:56:07;;;;;;;11.82;7.82;;;;;;;5.69;100.00;101605.69;4884869;29;20127;-74
2023/11/21 07:58:33;;;;;;;10.27;6.68;;;;;;;5.68;100.00;101604.88;4902067;29;20103;-74
2023/11/21 08:00:59;;;;;;;8.43;6.43;;;;;;;5.69;100.00;101606.53;4914540;29;20092;-75
2023/11/21 08:03:32;;;;;;;10.65;6.38;;;;;;;5.72;100.00;101597.31;4918145;29;20048;-74
2023/11/21 08:05:58;;;;;;;9.25;6.40;;;;;;;5.72;100.00;101598.13;4918225;29;20037;-74
2023/11/21 08:08:24;;;;;;;;;;;;;;;5.79;100.00;101613.19;4916450;29;20036;-76
2023/11/21 08:10:56;;;;;;;10.90;6.57;;;;;;;5.80;100.00;101618.28;4898231;29;19926;-74
2023/11/21 08:13:27;;;;;;;9.50;5.90;;;;;;;5.77;100.00;101623.25;4898841;29;20135;-76
2023/11/21 08:16:01;;;;;;;8.77;5.88;;;;;;;5.77;100.00;101618.75;4883440;29;20065;-74
2023/11/21 08:18:27;;;;;;;9.13;5.28;;;;;;;5.81;100.00;101611.13;4883686;29;20099;-75
2023/11/21 08:20:54;;;;;;;8.88;5.70;;;;;;;5.85;100.00;101618.47;4884775;29;20066;-76
2023/11/21 08:23:28;;;;;;;10.60;6.28;;;;;;;5.88;100.00;101627.84;4899110;29;20036;-76
2023/11/21 08:25:54;;;;;;;10.40;5.88;;;;;;;5.87;100.00;101632.34;4894955;29;20023;-76
2023/11/21 08:28:22;;;;;;;11.50;6.25;;;;;;;5.88;100.00;101623.34;4896261;29;20115;-75
2023/11/21 08:30:48;;;;;;;10.23;6.03;;;;;;;5.89;100.00;101634.78;4932142;29;20036;-75
2023/11/21 08:33:13;;;;;;;9.73;6.20;;;;;;;5.93;100.00;101634.16;4894163;29;20047;-75
2023/11/21 08:35:39;;;;;;;9.07;6.30;;;;;;;5.95;100.00;101639.25;4906787;29;20043;-75
2023/11/21 08:38:05;;;;;;;8.23;5.43;;;;;;;5.98;100.00;101641.50;4903524;29;20040;-74
2023/11/21 08:40:31;;;;;;;11.70;6.32;;;;;;;6.01;100.00;101627.75;4900302;29;20048;-74
2023/11/21 08:42:58;;;;;;;11.90;6.03;;;;;;;6.04;100.00;101637.97;4909522;29;20040;-76
2023/11/21 08:45:25;;;;;;;8.35;5.35;;;;;;;6.05;100.00;101644.94;4892829;29;20146;-75
2023/11/21 08:47:52;;;;;;;12.00;5.63;;;;;;;6.08;100.00;101652.47;4878562;29;20042;-75
2023/11/21 08:50:19;;;;;;;8.25;5.32;;;;;;;6.10;100.00;101662.91;4910170;29;20735;-75
2023/11/21 08:52:48;;;;;;;7.32;5.18;;;;;;;6.09;100.00;101656.75;4899667;29;20505;-75
2023/11/21 08:55:14;;;;;;;7.22;4.80;;;;;;;6.10;100.00;101661.06;4910271;29;20043;-75
2023/11/21 08:57:43;;;;;;;8.50;5.00;;;;;;;6.13;100.00;101673.91;4897885;29;20043;-73
2023/11/21 09:00:11;;;;;;;7.97;4.95;;;;;;;6.11;100.00;101667.19;4910522;29;20079;-74
2023/11/21 09:02:43;;;;;;;7.00;5.15;;;;;;;6.14;100.00;101674.72;4925993;29;20090;-75
2023/11/21 09:05:10;;;;;;;7.55;5.13;;;;;;;6.11;100.00;101683.94;4912045;29;20172;-75
2023/11/21 09:07:36;;;;;;;6.25;4.03;;;;;;;6.08;100.00;101689.69;4912730;29;20051;-75
2023/11/21 09:10:07;;;;;;;11.63;4.40;;;;;;;6.10;100.00;101695.63;4901135;29;20129;-74
2023/11/21 09:12:35;;;;;;;6.47;4.18;;;;;;;6.05;100.00;101692.78;4904884;29;20227;-75
2023/11/21 09:15:05;;;;;;;8.75;4.35;;;;;;;6.06;100.00;101694.41;4914663;29;20043;-75
2023/11/21 09:17:32;;;;;;;4.60;3.53;;;;;;;6.08;100.00;101700.31;4927895;29;20469;-74
2023/11/21 09:19:57;;;;;;;5.97;3.70;;;;;;;6.10;100.00;101706.25;4891139;29;20096;-78
2023/11/21 09:22:25;;;;;;;6.00;3.40;;;;;;;6.12;100.00;101714.84;4925854;29;20047;-75
2023/11/21 09:24:51;;;;;;;7.30;4.10;;;;;;;6.10;100.00;101713.44;4925890;29;20387;-74
2023/11/21 09:27:19;;;;;;;5.95;3.38;;;;;;;6.13;100.00;101721.78;4912604;29;20032;-75
2023/11/21 09:29:47;;;;;;;6.78;3.78;;;;;;;6.13;100.00;101718.31;4880898;29;20032;-74
2023/11/21 09:32:18;;;;;;;5.55;3.55;;;;;;;6.14;100.00;101723.41;4912711;29;20036;-75
2023/11/21 09:34:44;;;;;;;5.45;4.07;;;;;;;6.14;100.00;101728.72;4914820;29;20039;-74
2023/11/21 09:37:10;;;;;;;5.80;3.33;;;;;;;6.18;100.00;101729.13;4931531;29;20042;-74
2023/11/21 09:39:36;;;;;;;6.28;3.53;;;;;;;6.15;100.00;101725.03;4902132;29;20046;-76
2023/11/21 09:42:16;;;;;;;7.43;4.03;;;;;;;6.20;100.00;101733.19;4881042;29;20031;-74
2023/11/21 09:44:51;;;;;;;9.52;4.18;;;;;;;6.24;100.00;101738.91;4897627;29;20038;-77
2023/11/21 09:47:17;;;;;;;7.32;3.90;;;;;;;6.24;100.00;101737.03;4898618;29;20057;-73
2023/11/21 09:49:49;;;;;;;7.85;4.65;;;;;;;6.28;100.00;101746.22;4893734;29;20505;-74
2023/11/21 09:52:25;;;;;;;10.98;4.43;;;;;;;6.33;100.00;101755.41;4910251;29;20032;-74
2023/11/21 09:54:53;;;;;;;6.82;3.92;;;;;;;6.35;100.00;101756.81;4908061;29;20043;-74
2023/11/21 09:57:23;;;;;;;8.43;4.03;;;;;;;6.40;100.00;101764.13;4881247;29;20182;-75
2023/11/21 09:59:58;;;;;;;7.68;3.95;;;;;;;6.40;100.00;101759.63;4930119;29;20135;-73
2023/11/21 10:02:30;;;;;;;4.55;3.13;;;;;;;6.39;100.00;101773.97;4876168;29;20095;-74
2023/11/21 10:04:56;;;;;;;4.38;3.35;;;;;;;6.42;100.00;101772.72;4933791;28;20115;-75
2023/11/21 10:07:22;;;;;;;;;;;;;;;6.47;100.00;101771.03;4885544;29;20122;-73
2023/11/21 10:09:48;;;;;;;5.82;3.33;;;;;;;6.52;100.00;101770.41;4904332;29;20017;-74
2023/11/21 10:12:17;;;;;;;13.30;4.20;;;;;;;6.53;100.00;101772.03;4897151;29;20036;-74
2023/11/21 10:14:45;;;;;;;4.40;3.25;;;;;;;6.53;100.00;101780.81;4903224;29;20055;-74
2023/11/21 10:17:15;;;;;;;3.67;2.53;;;;;;;6.52;100.00;101781.84;4908402;29;20086;-76
2023/11/21 10:19:43;;;;;;;4.63;3.10;;;;;;;6.51;100.00;101776.75;4913887;29;20044;-73
2023/11/21 10:22:08;;;;;;;4.63;3.15;;;;;;;6.47;100.00;101773.69;4907563;29;20135;-76
2023/11/21 10:24:36;;;;;;;5.28;3.30;;;;;;;6.55;100.00;101778.75;4898912;29;20118;-74
2023/11/21 10:27:04;;;;;;;4.95;2.63;;;;;;;6.56;100.00;101784.88;4891724;29;20039;-74
2023/11/21 10:29:30;;;;;;;3.83;2.95;;;;;;;6.58;100.00;101772.19;4881762;29;20043;-76
2023/11/21 10:31:58;;;;;;;3.53;2.95;;;;;;;6.59;100.00;101779.13;4906760;29;20040;-74
2023/11/21 10:34:24;;;;;;;5.28;2.80;;;;;;;6.61;100.00;101778.91;4899982;29;20071;-76
2023/11/21 10:36:50;;;;;;;6.07;3.55;;;;;;;6.67;100.00;101791.34;4909360;29;20081;-75
2023/11/21 10:39:23;;;;;;;5.20;3.35;;;;;;;6.75;100.00;101791.88;4896262;29;20067;-76
2023/11/21 10:41:49;;;;;;;8.05;3.95;;;;;;;6.76;100.00;101801.50;4896487;29;20035;-74
2023/11/21 10:44:23;;;;;;;7.03;3.45;;;;;;;6.79;100.00;101798.41;4900424;29;20118;-75
2023/11/21 10:46:50;;;;;;;5.05;3.08;;;;;;;6.82;100.00;101805.16;4927802;29;20035;-74
2023/11/21 10:49:20;;;;;;;4.18;3.00;;;;;;;6.79;100.00;101797.59;4911328;29;20144;-74
2023/11/21 10:51:48;;;;;;;6.20;3.30;;;;;;;6.77;100.00;101800.50;4893166;29;20063;-75
2023/11/21 10:54:23;;;;;;;5.03;3.00;;;;;;;6.81;100.00;101804.31;4931248;28;20059;-74
2023/11/21 10:56:56;;;;;;;4.60;3.10;;;;;;;6.86;100.00;101805.53;4889786;29;20098;-73
2023/11/21 10:59:25;;;;;;;6.30;3.38;;;;;;;6.83;100.00;101802.25;4892827;29;20508;-74
2023/11/21 11:01:52;;;;;;;3.72;2.83;;;;;;;6.92;100.00;101805.47;4911193;29;20067;-73
2023/11/21 11:04:22;;;;;;;4.43;2.50;;;;;;;6.95;100.00;101796.22;4908215;29;20044;-78
2023/11/21 11:06:57;;;;;;;4.53;2.75;;;;;;;6.97;100.00;101799.47;4910561;29;20023;-78
2023/11/21 11:09:23;;;;;;;4.53;3.13;;;;;;;6.97;100.00;101807.47;4910767;29;20043;-78
2023/11/21 11:11:51;;;;;;;8.52;3.70;;;;;;;6.93;100.00;101811.63;4892602;29;20050;-79
2023/11/21 11:14:24;;;;;;;3.80;2.55;;;;;;;6.94;100.00;101807.91;4926344;29;20035;-76
2023/11/21 11:16:53;;;;;;;5.43;3.40;;;;;;;6.92;100.00;101810.81;4894632;29;20039;-81
2023/11/21 11:19:23;;;;;;;7.00;3.03;;;;;;;6.86;100.00;101818.84;4894254;29;20062;-79
2023/11/21 11:22:15;;;;;;;5.65;3.10;;;;;;;6.88;100.00;101822.09;4877859;29;20042;-78